Hydro, Oklahoma
Current Conditions -  °F | °C
As of 10:35 AM on Friday 24 Oct 2014 (Local Time) from KOJA Reporting Station
Clear Clear  
Wind Chill: 68°   Ceiling: Unl
Heat Index: 68°   Visibility: 10mi
Dew Point: 59°   Wind: 6mph
Humidity: 73%   Direction: 190°S
Pressure: 30.11"   Gusts: NA
Location:  35.55°N, 98.58°W
Report Text: KOJA 241535Z AUTO 19005KT 10SM CLR 20/15 A3011 RMK AO2
Loading
Personal Weather Stations






























Interactive Weather Map New forecast layout! Learn more

10-Day Weather Forecast

Advertisements
Track Severe Weather on mobile